createdAt,value
2019-04-22T00:07:12.510Z,5.74
2019-04-22T00:15:20.249Z,5.95
2019-04-22T00:18:03.317Z,5.98
2019-04-22T00:20:22.951Z,6.07
2019-04-22T00:22:52.013Z,6.08
2019-04-22T00:28:30.574Z,6.16
2019-04-22T00:33:54.731Z,6.22
2019-04-22T00:36:30.163Z,6.24
2019-04-22T00:39:03.377Z,6.25
2019-04-22T00:41:29.775Z,6.29
2019-04-22T00:44:02.868Z,6.36
2019-04-22T00:47:16.374Z,6.41
2019-04-22T00:52:16.115Z,6.56
2019-04-22T00:54:35.754Z,6.56
2019-04-22T00:57:15.380Z,6.60
2019-04-22T01:02:46.169Z,6.61
2019-04-22T01:05:15.179Z,6.60
2019-04-22T01:07:43.523Z,6.53
2019-04-22T01:10:14.261Z,6.60
2019-04-22T01:12:46.757Z,6.60
2019-04-22T01:15:23.750Z,6.61
2019-04-22T01:17:52.545Z,6.64
2019-04-22T01:23:10.913Z,6.63
2019-04-22T01:26:16.125Z,6.70
2019-04-22T01:34:54.955Z,6.77
2019-04-22T01:37:28.879Z,6.77
2019-04-22T01:40:04.742Z,6.78
2019-04-22T01:43:03.807Z,6.77
2019-04-22T01:45:36.302Z,6.73
2019-04-22T01:47:57.896Z,6.76
2019-04-22T01:51:00.886Z,6.76
2019-04-22T01:53:42.781Z,6.77
2019-04-22T01:56:16.283Z,6.76
2019-04-22T01:58:33.239Z,6.76
2019-04-22T02:01:18.787Z,6.78
2019-04-22T02:03:46.752Z,6.75
2019-04-22T02:14:30.340Z,6.77
2019-04-22T02:19:30.495Z,6.77
2019-04-22T02:21:55.928Z,6.76
2019-04-22T02:27:32.797Z,6.79
2019-04-22T02:36:29.768Z,6.79
2019-04-22T02:39:12.213Z,6.76
2019-04-22T02:44:42.207Z,6.71
2019-04-22T02:55:00.382Z,6.46
2019-04-22T02:57:30.095Z,6.50
2019-04-22T02:59:57.118Z,6.55
2019-04-22T03:02:28.728Z,6.57
2019-04-22T03:05:00.864Z,6.57
2019-04-22T03:10:09.979Z,6.53
2019-04-22T03:15:11.602Z,6.48
2019-04-22T03:28:44.293Z,6.59
2019-04-22T03:43:09.208Z,6.78
2019-04-22T03:48:04.680Z,6.49
2019-04-22T03:50:30.863Z,6.76
2019-04-22T03:52:56.123Z,6.76
2019-04-22T03:55:23.034Z,6.78
2019-04-22T03:58:10.639Z,6.80
2019-04-22T04:03:12.072Z,6.79
2019-04-22T04:05:54.093Z,6.75
2019-04-22T04:08:26.866Z,6.74
2019-04-22T04:10:47.981Z,6.76
2019-04-22T04:13:17.566Z,6.79
2019-04-22T04:18:56.094Z,6.79
2019-04-22T04:21:26.814Z,6.80
2019-04-22T04:24:02.958Z,6.75
2019-04-22T04:26:30.808Z,6.73
2019-04-22T04:31:25.139Z,6.71
2019-04-22T04:38:54.533Z,6.69
2019-04-22T04:41:42.971Z,6.70
2019-04-22T04:44:03.764Z,6.68
2019-04-22T04:54:14.964Z,6.70
2019-04-22T04:56:36.442Z,6.71
2019-04-22T04:59:28.270Z,6.74
2019-04-22T05:01:40.246Z,6.75
2019-04-22T05:04:28.214Z,6.77
2019-04-22T05:09:26.053Z,6.81
2019-04-22T05:12:01.921Z,6.87
2019-04-22T05:14:28.929Z,6.93
2019-04-22T05:22:40.009Z,7.07
2019-04-22T05:25:19.720Z,7.12
2019-04-22T05:30:23.684Z,7.24
2019-04-22T05:32:43.001Z,7.29
2019-04-22T05:35:14.576Z,7.37
2019-04-22T05:37:50.264Z,7.43
2019-04-22T05:40:20.075Z,7.52
2019-04-22T05:42:53.102Z,7.59
2019-04-22T05:48:38.066Z,7.73
2019-04-22T05:51:03.715Z,7.83
2019-04-22T05:56:37.551Z,7.98
2019-04-22T05:58:58.588Z,8.04
2019-04-22T06:03:58.795Z,8.22
2019-04-22T06:06:51.600Z,8.30
2019-04-22T06:12:26.903Z,8.49
2019-04-22T06:18:09.340Z,8.67
2019-04-22T06:21:11.518Z,8.75
2019-04-22T06:23:49.227Z,8.82
2019-04-22T06:26:26.913Z,8.93
2019-04-22T06:29:01.645Z,9.03
2019-04-22T06:31:24.485Z,9.12
2019-04-22T06:33:48.358Z,9.18
2019-04-22T06:36:26.301Z,9.25
2019-04-22T06:41:40.263Z,9.41
2019-04-22T06:47:38.000Z,9.61
2019-04-22T06:49:48.264Z,9.73
2019-04-22T06:52:19.700Z,9.82
2019-04-22T06:54:54.242Z,9.89
2019-04-22T06:57:25.355Z,9.95
2019-04-22T07:03:13.734Z,10.13
2019-04-22T07:08:34.660Z,10.38
2019-04-22T07:13:45.295Z,10.58
2019-04-22T07:16:13.728Z,10.68
2019-04-22T07:18:45.056Z,10.72
2019-04-22T07:21:27.184Z,10.79
2019-04-22T07:24:17.855Z,10.88
2019-04-22T07:26:25.146Z,10.98
2019-04-22T07:31:51.020Z,11.19
2019-04-22T07:34:19.441Z,11.34
2019-04-22T07:42:52.106Z,11.77
2019-04-22T07:50:49.377Z,12.00
2019-04-22T07:53:14.373Z,12.10
2019-04-22T07:55:38.109Z,12.19
2019-04-22T08:04:21.658Z,12.49
2019-04-22T08:06:24.226Z,12.63
2019-04-22T08:09:01.908Z,12.80
2019-04-22T08:11:46.580Z,12.84
2019-04-22T08:14:00.213Z,12.85
2019-04-22T08:16:28.438Z,12.97
2019-04-22T08:19:04.308Z,13.10
2019-04-22T08:21:29.984Z,13.20
2019-04-22T08:24:01.362Z,13.27
2019-04-22T08:26:35.946Z,13.39
2019-04-22T08:29:06.803Z,13.54
2019-04-22T08:34:06.334Z,13.79
2019-04-22T08:36:41.006Z,13.96
2019-04-22T08:39:31.166Z,14.11
2019-04-22T08:53:10.897Z,14.74
2019-04-22T08:58:53.714Z,14.89
2019-04-22T09:01:05.275Z,15.06
2019-04-22T09:03:30.557Z,15.15
2019-04-22T09:06:15.310Z,15.22
2019-04-22T09:08:45.642Z,15.36
2019-04-22T09:11:18.453Z,15.39
2019-04-22T09:13:45.326Z,15.44
2019-04-22T09:16:14.666Z,15.55
2019-04-22T09:18:40.966Z,15.43
2019-04-22T09:21:18.750Z,15.78
2019-04-22T09:23:44.566Z,15.81
2019-04-22T09:26:36.146Z,15.77
2019-04-22T09:31:37.194Z,15.87
2019-04-22T09:34:11.964Z,15.94
2019-04-22T09:36:44.309Z,16.05
2019-04-22T09:42:17.402Z,15.98
2019-04-22T09:50:20.844Z,16.16
2019-04-22T09:52:50.911Z,16.23
2019-04-22T09:57:46.310Z,16.46
2019-04-22T10:00:15.467Z,16.56
2019-04-22T10:05:21.174Z,16.75
2019-04-22T10:07:54.466Z,16.77
2019-04-22T10:10:35.252Z,16.88
2019-04-22T10:12:46.759Z,16.93
2019-04-22T10:15:23.361Z,16.94
2019-04-22T10:18:09.359Z,17.06
2019-04-22T10:20:26.932Z,17.07
2019-04-22T10:22:57.423Z,16.82
2019-04-22T10:25:25.230Z,16.52
2019-04-22T10:28:01.621Z,16.56
2019-04-22T10:30:39.130Z,16.47
2019-04-22T10:33:00.861Z,16.40
2019-04-22T10:35:15.498Z,16.44
2019-04-22T10:37:42.761Z,16.44
2019-04-22T10:46:28.385Z,16.40
2019-04-22T10:49:00.014Z,16.32
2019-04-22T10:51:30.769Z,16.27
2019-04-22T10:56:36.938Z,16.34
2019-04-22T10:59:06.920Z,16.39
2019-04-22T11:01:38.504Z,16.38
2019-04-22T11:04:07.285Z,16.30
2019-04-22T11:09:12.490Z,16.22
2019-04-22T11:11:53.734Z,16.34
2019-04-22T11:14:14.871Z,16.38
2019-04-22T11:16:45.593Z,16.29
2019-04-22T11:24:26.665Z,16.31
2019-04-22T11:26:57.061Z,16.34
2019-04-22T11:29:27.892Z,16.31
2019-04-22T11:32:00.032Z,16.44
2019-04-22T11:40:06.904Z,16.35
2019-04-22T11:42:32.306Z,16.44
2019-04-22T11:45:03.548Z,16.45
2019-04-22T11:47:33.342Z,16.50
2019-04-22T11:53:13.025Z,16.42
2019-04-22T12:01:26.702Z,16.53
2019-04-22T12:03:58.002Z,16.74
2019-04-22T12:06:28.217Z,16.79
2019-04-22T12:08:59.588Z,16.68
2019-04-22T12:14:25.672Z,16.64
2019-04-22T12:19:46.268Z,16.48
2019-04-22T12:22:15.656Z,16.53
2019-04-22T12:28:01.168Z,16.65
2019-04-22T12:38:47.700Z,16.76
2019-04-22T12:41:17.925Z,16.96
2019-04-22T12:43:49.288Z,17.00
2019-04-22T12:46:20.379Z,16.97
2019-04-22T12:48:50.058Z,17.02
2019-04-22T12:51:20.822Z,17.18
2019-04-22T12:53:50.900Z,17.21
2019-04-22T12:56:21.775Z,17.17
2019-04-22T12:58:51.696Z,17.06
2019-04-22T13:01:22.060Z,16.98
2019-04-22T13:03:52.075Z,17.00
2019-04-22T13:06:23.661Z,16.97
2019-04-22T13:08:54.637Z,16.94
2019-04-22T13:11:30.290Z,16.94
2019-04-22T13:16:31.286Z,16.98
2019-04-22T13:19:05.729Z,16.95
2019-04-22T13:21:46.811Z,16.93
2019-04-22T13:24:28.082Z,16.90
2019-04-22T13:26:57.400Z,16.90
2019-04-22T13:29:28.423Z,16.74
2019-04-22T13:31:58.599Z,16.73
2019-04-22T13:34:34.820Z,16.68
2019-04-22T13:37:01.163Z,16.77
2019-04-22T13:39:31.299Z,16.87
2019-04-22T13:42:05.623Z,16.80
2019-04-22T13:44:33.577Z,16.85
2019-04-22T13:47:19.716Z,16.82
2019-04-22T13:50:31.325Z,16.88
2019-04-22T13:55:45.469Z,16.79
2019-04-22T13:58:02.554Z,16.85
2019-04-22T14:03:41.616Z,16.96
2019-04-22T14:06:13.194Z,16.98
2019-04-22T14:08:43.165Z,17.05
2019-04-22T14:11:41.593Z,17.18
2019-04-22T14:14:02.950Z,17.06
2019-04-22T14:16:35.158Z,17.08
2019-04-22T14:19:05.653Z,17.15
2019-04-22T14:21:36.796Z,17.18
2019-04-22T14:27:27.920Z,17.32
2019-04-22T14:29:47.244Z,17.31
2019-04-22T14:32:21.807Z,17.36
2019-04-22T14:37:38.422Z,17.35
2019-04-22T14:46:31.964Z,17.40
2019-04-22T14:48:57.207Z,17.35
2019-04-22T14:51:20.728Z,17.25
2019-04-22T14:53:56.562Z,17.14
2019-04-22T14:56:08.525Z,17.08
2019-04-22T14:58:38.322Z,17.11
2019-04-22T15:01:08.595Z,17.18
2019-04-22T15:03:42.000Z,16.98
2019-04-22T15:06:22.291Z,16.93
2019-04-22T15:08:54.486Z,16.95
2019-04-22T15:11:23.315Z,16.99
2019-04-22T15:13:53.525Z,16.99
2019-04-22T15:16:42.665Z,17.01
2019-04-22T15:22:14.739Z,16.86
2019-04-22T15:25:03.076Z,16.84
2019-04-22T15:27:33.193Z,16.92
2019-04-22T15:32:51.733Z,17.00
2019-04-22T15:35:41.070Z,17.03
2019-04-22T15:38:11.398Z,17.09
2019-04-22T15:41:02.738Z,17.07
2019-04-22T15:46:07.845Z,17.21
2019-04-22T15:48:37.761Z,17.22
2019-04-22T15:51:08.818Z,17.18
2019-04-22T15:53:39.845Z,17.13
2019-04-22T15:56:10.625Z,17.10
2019-04-22T15:58:41.885Z,17.12
2019-04-22T16:01:19.297Z,17.08
2019-04-22T16:11:49.842Z,16.98
2019-04-22T16:14:23.896Z,16.96
2019-04-22T16:16:52.209Z,16.95
2019-04-22T16:19:23.255Z,17.00
2019-04-22T16:21:59.406Z,16.92
2019-04-22T16:24:43.005Z,16.95
2019-04-22T16:27:32.141Z,16.97
2019-04-22T16:30:03.645Z,16.96
2019-04-22T16:35:22.566Z,16.85
2019-04-22T16:37:52.710Z,16.88
2019-04-22T16:40:22.826Z,16.86
2019-04-22T16:42:58.302Z,16.87
2019-04-22T16:45:25.377Z,16.88
2019-04-22T16:47:55.625Z,16.89
2019-04-22T16:50:41.230Z,16.85
2019-04-22T16:53:10.118Z,16.87
2019-04-22T16:55:41.007Z,16.85
2019-04-22T16:58:12.677Z,16.79
2019-04-22T17:01:22.759Z,16.80
2019-04-22T17:04:12.377Z,16.83
2019-04-22T17:09:32.120Z,16.69
2019-04-22T17:12:21.781Z,16.49
2019-04-22T17:14:56.861Z,16.42
2019-04-22T17:22:51.763Z,16.34
2019-04-22T17:25:22.471Z,16.30
2019-04-22T17:27:52.202Z,16.29
2019-04-22T17:30:24.675Z,16.26
2019-04-22T17:32:54.758Z,16.18
2019-04-22T17:39:18.429Z,16.02
2019-04-22T17:41:52.676Z,15.90
2019-04-22T17:47:44.552Z,15.64
2019-04-22T17:50:31.960Z,15.49
2019-04-22T17:53:02.680Z,15.34
2019-04-22T17:58:20.769Z,15.08
2019-04-22T18:01:02.769Z,14.95
2019-04-22T18:03:17.567Z,14.84
2019-04-22T18:09:19.365Z,14.65
2019-04-22T18:11:51.233Z,14.56
2019-04-22T18:19:53.222Z,14.26
2019-04-22T18:22:38.164Z,14.13
2019-04-22T18:28:00.719Z,13.88
2019-04-22T18:30:30.138Z,13.77
2019-04-22T18:33:07.499Z,13.65
2019-04-22T18:35:55.278Z,13.51
2019-04-22T18:38:42.253Z,13.40
2019-04-22T18:41:03.526Z,13.21
2019-04-22T18:43:33.937Z,13.12
2019-04-22T18:46:11.308Z,13.01
2019-04-22T18:48:53.989Z,12.88
2019-04-22T18:54:36.262Z,12.65
2019-04-22T18:57:07.765Z,12.54
2019-04-22T18:59:28.068Z,12.42
2019-04-22T19:01:52.298Z,12.32
2019-04-22T19:04:36.766Z,12.21
2019-04-22T19:07:20.356Z,12.12
2019-04-22T19:09:59.727Z,12.02
2019-04-22T19:15:05.467Z,11.81
2019-04-22T19:20:24.027Z,11.62
2019-04-22T19:22:51.790Z,11.51
2019-04-22T19:25:21.265Z,11.41
2019-04-22T19:27:53.622Z,11.35
2019-04-22T19:30:22.324Z,11.29
2019-04-22T19:33:02.850Z,11.23
2019-04-22T19:35:22.875Z,11.16
2019-04-22T19:37:52.234Z,11.04
2019-04-22T19:43:32.819Z,10.95
2019-04-22T19:46:08.857Z,10.80
2019-04-22T19:48:45.600Z,10.80
2019-04-22T19:51:15.806Z,10.75
2019-04-22T19:53:47.030Z,10.70
2019-04-22T19:56:11.608Z,10.64
2019-04-22T19:58:42.709Z,10.55
2019-04-22T20:04:41.572Z,10.45
2019-04-22T20:10:20.614Z,10.29
2019-04-22T20:13:08.095Z,10.24
2019-04-22T20:15:29.273Z,10.20
2019-04-22T20:20:46.537Z,10.07
2019-04-22T20:23:05.221Z,10.04
2019-04-22T20:25:40.842Z,10.01
2019-04-22T20:28:15.762Z,9.94
2019-04-22T20:31:25.328Z,9.88
2019-04-22T20:33:56.349Z,9.83
2019-04-22T20:39:20.370Z,9.76
2019-04-22T20:41:53.580Z,9.71
2019-04-22T20:44:32.260Z,9.66
2019-04-22T20:46:48.877Z,9.60
2019-04-22T20:54:28.960Z,9.47
2019-04-22T20:56:54.986Z,9.41
2019-04-22T20:59:33.386Z,9.39
2019-04-22T21:02:03.635Z,9.29
2019-04-22T21:04:24.750Z,9.30
2019-04-22T21:07:03.766Z,9.27
2019-04-22T21:09:37.927Z,9.22
2019-04-22T21:12:07.575Z,9.19
2019-04-22T21:14:36.121Z,9.14
2019-04-22T21:20:10.000Z,9.10
2019-04-22T21:22:32.443Z,9.06
2019-04-22T21:24:57.320Z,9.08
2019-04-22T21:27:40.672Z,9.12
2019-04-22T21:30:00.053Z,9.25
2019-04-22T21:35:40.430Z,9.66
2019-04-22T21:38:04.548Z,9.93
2019-04-22T21:43:30.069Z,10.12
2019-04-22T21:46:04.847Z,10.06
2019-04-22T21:48:37.182Z,9.99
2019-04-22T21:51:08.708Z,9.93
2019-04-22T21:53:58.682Z,9.91
2019-04-22T21:56:40.828Z,10.00
2019-04-22T21:59:15.634Z,10.01
2019-04-22T22:01:53.981Z,10.00
2019-04-22T22:04:20.725Z,10.06
2019-04-22T22:06:42.561Z,10.03
2019-04-22T22:11:57.787Z,9.99
2019-04-22T22:14:31.689Z,9.99
2019-04-22T22:16:56.466Z,10.01
2019-04-22T22:25:11.496Z,10.07
2019-04-22T22:27:41.118Z,10.07
2019-04-22T22:30:31.606Z,10.03
2019-04-22T22:32:40.216Z,9.99
2019-04-22T22:35:16.474Z,9.96
2019-04-22T22:37:44.996Z,9.95
2019-04-22T22:40:03.699Z,9.94
2019-04-22T22:42:35.977Z,9.90
2019-04-22T22:45:07.849Z,9.91
2019-04-22T22:47:44.349Z,9.91
2019-04-22T22:50:20.385Z,9.86
2019-04-22T22:53:19.207Z,9.85
2019-04-22T22:55:21.705Z,9.83
2019-04-22T22:58:01.336Z,9.80
2019-04-22T23:05:58.928Z,9.73
2019-04-22T23:08:45.945Z,9.73
2019-04-22T23:11:01.664Z,9.71
2019-04-22T23:13:33.600Z,9.71
2019-04-22T23:15:50.733Z,9.67
2019-04-22T23:18:10.027Z,9.67
2019-04-22T23:20:47.278Z,9.61
2019-04-22T23:23:33.265Z,9.58
2019-04-22T23:28:50.623Z,9.61
2019-04-22T23:31:35.490Z,9.62
2019-04-22T23:37:23.189Z,9.61
2019-04-22T23:40:11.801Z,9.58
2019-04-22T23:42:41.031Z,9.54
2019-04-22T23:45:02.126Z,9.50
2019-04-22T23:52:53.066Z,9.31
2019-04-22T23:55:20.446Z,9.28
2019-04-22T23:57:56.747Z,9.27
